sensor_id;sensor_type;location;lat;lon;timestamp;pressure;altitude;pressure_sealevel;temperature
75811;BMP280;64449;50.016;19.954;2024-02-04T00:01:47;98561.64;;;9.70
75811;BMP280;64449;50.016;19.954;2024-02-04T00:04:12;98559.58;;;9.69
75811;BMP280;64449;50.016;19.954;2024-02-04T00:06:38;98559.77;;;9.67
75811;BMP280;64449;50.016;19.954;2024-02-04T00:09:03;98558.40;;;9.65
75811;BMP280;64449;50.016;19.954;2024-02-04T00:11:29;98556.31;;;9.63
75811;BMP280;64449;50.016;19.954;2024-02-04T00:13:55;98552.47;;;9.61
75811;BMP280;64449;50.016;19.954;2024-02-04T00:16:20;98547.77;;;9.59
75811;BMP280;64449;50.016;19.954;2024-02-04T00:18:46;98554.52;;;9.59
75811;BMP280;64449;50.016;19.954;2024-02-04T00:21:11;98549.66;;;9.60
75811;BMP280;64449;50.016;19.954;2024-02-04T00:23:36;98543.51;;;9.59
75811;BMP280;64449;50.016;19.954;2024-02-04T00:26:02;98543.91;;;9.58
75811;BMP280;64449;50.016;19.954;2024-02-04T00:28:28;98532.00;;;9.56
75811;BMP280;64449;50.016;19.954;2024-02-04T00:30:53;98529.47;;;9.54
75811;BMP280;64449;50.016;19.954;2024-02-04T00:33:21;98526.29;;;9.52
75811;BMP280;64449;50.016;19.954;2024-02-04T00:35:47;98522.21;;;9.49
75811;BMP280;64449;50.016;19.954;2024-02-04T00:38:12;98521.88;;;9.47
75811;BMP280;64449;50.016;19.954;2024-02-04T00:40:37;98517.74;;;9.46
75811;BMP280;64449;50.016;19.954;2024-02-04T00:43:03;98516.73;;;9.46
75811;BMP280;64449;50.016;19.954;2024-02-04T00:45:28;98518.21;;;9.46
75811;BMP280;64449;50.016;19.954;2024-02-04T00:47:54;98518.72;;;9.47
75811;BMP280;64449;50.016;19.954;2024-02-04T00:50:19;98527.77;;;9.48
75811;BMP280;64449;50.016;19.954;2024-02-04T00:52:44;98533.34;;;9.49
75811;BMP280;64449;50.016;19.954;2024-02-04T00:55:10;98529.34;;;9.50
75811;BMP280;64449;50.016;19.954;2024-02-04T00:57:35;98531.93;;;9.51
75811;BMP280;64449;50.016;19.954;2024-02-04T01:00:01;98536.24;;;9.51
75811;BMP280;64449;50.016;19.954;2024-02-04T01:02:26;98535.02;;;9.52
75811;BMP280;64449;50.016;19.954;2024-02-04T01:04:52;98531.11;;;9.51
75811;BMP280;64449;50.016;19.954;2024-02-04T01:07:17;98531.23;;;9.52
75811;BMP280;64449;50.016;19.954;2024-02-04T01:09:42;98531.70;;;9.52
75811;BMP280;64449;50.016;19.954;2024-02-04T01:12:08;98528.21;;;9.51
75811;BMP280;64449;50.016;19.954;2024-02-04T01:14:34;98517.66;;;9.49
75811;BMP280;64449;50.016;19.954;2024-02-04T01:16:59;98524.44;;;9.48
75811;BMP280;64449;50.016;19.954;2024-02-04T01:19:24;98523.50;;;9.46
75811;BMP280;64449;50.016;19.954;2024-02-04T01:21:50;98523.14;;;9.45
75811;BMP280;64449;50.016;19.954;2024-02-04T01:24:15;98518.84;;;9.44
75811;BMP280;64449;50.016;19.954;2024-02-04T01:26:40;98519.09;;;9.43
75811;BMP280;64449;50.016;19.954;2024-02-04T01:29:06;98516.61;;;9.43
75811;BMP280;64449;50.016;19.954;2024-02-04T01:31:31;98513.56;;;9.42
75811;BMP280;64449;50.016;19.954;2024-02-04T01:33:56;98511.61;;;9.42
75811;BMP280;64449;50.016;19.954;2024-02-04T01:36:22;98510.40;;;9.41
75811;BMP280;64449;50.016;19.954;2024-02-04T01:38:47;98517.67;;;9.41
75811;BMP280;64449;50.016;19.954;2024-02-04T01:41:13;98511.46;;;9.41
75811;BMP280;64449;50.016;19.954;2024-02-04T01:43:39;98513.55;;;9.39
75811;BMP280;64449;50.016;19.954;2024-02-04T01:46:04;98516.00;;;9.38
75811;BMP280;64449;50.016;19.954;2024-02-04T01:48:30;98514.46;;;9.35
75811;BMP280;64449;50.016;19.954;2024-02-04T01:50:58;98514.16;;;9.34
75811;BMP280;64449;50.016;19.954;2024-02-04T01:53:25;98507.13;;;9.33
75811;BMP280;64449;50.016;19.954;2024-02-04T01:55:52;98507.14;;;9.31
75811;BMP280;64449;50.016;19.954;2024-02-04T01:58:17;98498.50;;;9.30
75811;BMP280;64449;50.016;19.954;2024-02-04T02:00:43;98498.95;;;9.29
75811;BMP280;64449;50.016;19.954;2024-02-04T02:03:11;98495.53;;;9.28
75811;BMP280;64449;50.016;19.954;2024-02-04T02:05:37;98490.92;;;9.27
75811;BMP280;64449;50.016;19.954;2024-02-04T02:08:02;98485.38;;;9.26
75811;BMP280;64449;50.016;19.954;2024-02-04T02:10:28;98479.71;;;9.24
75811;BMP280;64449;50.016;19.954;2024-02-04T02:12:59;98479.08;;;9.23
75811;BMP280;64449;50.016;19.954;2024-02-04T02:15:32;98475.82;;;9.22
75811;BMP280;64449;50.016;19.954;2024-02-04T02:18:04;98478.25;;;9.20
75811;BMP280;64449;50.016;19.954;2024-02-04T02:25:36;98473.30;;;9.15
75811;BMP280;64449;50.016;19.954;2024-02-04T02:28:01;98477.46;;;9.13
75811;BMP280;64449;50.016;19.954;2024-02-04T02:30:27;98473.17;;;9.09
75811;BMP280;64449;50.016;19.954;2024-02-04T02:32:52;98472.79;;;9.08
75811;BMP280;64449;50.016;19.954;2024-02-04T02:35:18;98474.58;;;9.07
75811;BMP280;64449;50.016;19.954;2024-02-04T02:37:56;98474.44;;;9.06
75811;BMP280;64449;50.016;19.954;2024-02-04T02:40:38;98469.26;;;9.05
75811;BMP280;64449;50.016;19.954;2024-02-04T02:43:05;98465.85;;;9.04
75811;BMP280;64449;50.016;19.954;2024-02-04T02:45:31;98473.76;;;9.04
75811;BMP280;64449;50.016;19.954;2024-02-04T02:47:57;98477.21;;;9.05
75811;BMP280;64449;50.016;19.954;2024-02-04T02:50:23;98481.14;;;9.05
75811;BMP280;64449;50.016;19.954;2024-02-04T02:52:49;98475.11;;;9.05
75811;BMP280;64449;50.016;19.954;2024-02-04T02:55:14;98472.17;;;9.06
75811;BMP280;64449;50.016;19.954;2024-02-04T02:57:40;98486.99;;;9.06
75811;BMP280;64449;50.016;19.954;2024-02-04T03:00:05;98491.19;;;9.05
75811;BMP280;64449;50.016;19.954;2024-02-04T03:02:32;98485.50;;;9.06
75811;BMP280;64449;50.016;19.954;2024-02-04T03:04:57;98506.01;;;9.06
75811;BMP280;64449;50.016;19.954;2024-02-04T03:07:23;98530.16;;;9.07
75811;BMP280;64449;50.016;19.954;2024-02-04T03:09:48;98530.16;;;9.08
75811;BMP280;64449;50.016;19.954;2024-02-04T03:12:13;98541.73;;;9.09
75811;BMP280;64449;50.016;19.954;2024-02-04T03:14:39;98542.41;;;9.09
75811;BMP280;64449;50.016;19.954;2024-02-04T03:17:04;98537.98;;;9.08
75811;BMP280;64449;50.016;19.954;2024-02-04T03:19:29;98542.11;;;9.07
75811;BMP280;64449;50.016;19.954;2024-02-04T03:21:55;98542.20;;;9.07
75811;BMP280;64449;50.016;19.954;2024-02-04T03:24:20;98543.71;;;9.06
75811;BMP280;64449;50.016;19.954;2024-02-04T03:26:46;98542.61;;;9.06
75811;BMP280;64449;50.016;19.954;2024-02-04T03:29:11;98542.05;;;9.06
75811;BMP280;64449;50.016;19.954;2024-02-04T03:31:36;98541.70;;;9.05
75811;BMP280;64449;50.016;19.954;2024-02-04T03:34:02;98531.19;;;9.04
75811;BMP280;64449;50.016;19.954;2024-02-04T03:36:27;98525.21;;;9.02
75811;BMP280;64449;50.016;19.954;2024-02-04T03:38:53;98512.43;;;9.01
75811;BMP280;64449;50.016;19.954;2024-02-04T03:41:19;98507.36;;;9.00
75811;BMP280;64449;50.016;19.954;2024-02-04T03:43:44;98502.35;;;8.99
75811;BMP280;64449;50.016;19.954;2024-02-04T03:46:16;98509.05;;;8.99
75811;BMP280;64449;50.016;19.954;2024-02-04T03:48:42;98510.35;;;8.97
75811;BMP280;64449;50.016;19.954;2024-02-04T03:51:08;98515.08;;;8.96
75811;BMP280;64449;50.016;19.954;2024-02-04T03:53:33;98513.34;;;8.94
75811;BMP280;64449;50.016;19.954;2024-02-04T03:55:59;98509.98;;;8.93
75811;BMP280;64449;50.016;19.954;2024-02-04T03:58:24;98512.79;;;8.91
75811;BMP280;64449;50.016;19.954;2024-02-04T04:00:57;98519.07;;;8.90
75811;BMP280;64449;50.016;19.954;2024-02-04T04:03:22;98516.94;;;8.88
75811;BMP280;64449;50.016;19.954;2024-02-04T04:05:49;98518.34;;;8.87
75811;BMP280;64449;50.016;19.954;2024-02-04T04:08:14;98514.98;;;8.85
75811;BMP280;64449;50.016;19.954;2024-02-04T04:10:40;98509.14;;;8.84
75811;BMP280;64449;50.016;19.954;2024-02-04T04:13:05;98514.08;;;8.82
75811;BMP280;64449;50.016;19.954;2024-02-04T04:15:30;98514.58;;;8.80
75811;BMP280;64449;50.016;19.954;2024-02-04T04:17:56;98516.31;;;8.79
75811;BMP280;64449;50.016;19.954;2024-02-04T04:20:21;98522.02;;;8.78
75811;BMP280;64449;50.016;19.954;2024-02-04T04:22:46;98517.65;;;8.78
75811;BMP280;64449;50.016;19.954;2024-02-04T04:25:12;98516.70;;;8.77
75811;BMP280;64449;50.016;19.954;2024-02-04T04:27:39;98522.81;;;8.77
75811;BMP280;64449;50.016;19.954;2024-02-04T04:30:05;98526.59;;;8.76
75811;BMP280;64449;50.016;19.954;2024-02-04T04:32:30;98525.70;;;8.74
75811;BMP280;64449;50.016;19.954;2024-02-04T04:34:56;98523.63;;;8.73
75811;BMP280;64449;50.016;19.954;2024-02-04T04:37:21;98522.77;;;8.72
75811;BMP280;64449;50.016;19.954;2024-02-04T04:39:47;98523.30;;;8.70
75811;BMP280;64449;50.016;19.954;2024-02-04T04:42:12;98522.83;;;8.68
75811;BMP280;64449;50.016;19.954;2024-02-04T04:44:38;98518.34;;;8.66
75811;BMP280;64449;50.016;19.954;2024-02-04T04:47:03;98518.92;;;8.65
75811;BMP280;64449;50.016;19.954;2024-02-04T04:49:29;98521.38;;;8.64
75811;BMP280;64449;50.016;19.954;2024-02-04T04:51:54;98511.27;;;8.64
75811;BMP280;64449;50.016;19.954;2024-02-04T04:54:20;98507.14;;;8.63
75811;BMP280;64449;50.016;19.954;2024-02-04T04:56:45;98505.73;;;8.62
75811;BMP280;64449;50.016;19.954;2024-02-04T04:59:11;98511.98;;;8.60
75811;BMP280;64449;50.016;19.954;2024-02-04T05:01:36;98505.56;;;8.58
75811;BMP280;64449;50.016;19.954;2024-02-04T05:04:02;98498.23;;;8.56
75811;BMP280;64449;50.016;19.954;2024-02-04T05:06:27;98496.79;;;8.54
75811;BMP280;64449;50.016;19.954;2024-02-04T05:08:52;98498.30;;;8.54
75811;BMP280;64449;50.016;19.954;2024-02-04T05:11:18;98497.02;;;8.53
75811;BMP280;64449;50.016;19.954;2024-02-04T05:13:44;98500.77;;;8.52
75811;BMP280;64449;50.016;19.954;2024-02-04T05:16:09;98496.56;;;8.53
75811;BMP280;64449;50.016;19.954;2024-02-04T05:18:34;98497.65;;;8.53
75811;BMP280;64449;50.016;19.954;2024-02-04T05:21:03;98501.91;;;8.55
75811;BMP280;64449;50.016;19.954;2024-02-04T05:23:29;98502.02;;;8.56
75811;BMP280;64449;50.016;19.954;2024-02-04T05:25:54;98502.67;;;8.56
75811;BMP280;64449;50.016;19.954;2024-02-04T05:28:20;98510.05;;;8.56
75811;BMP280;64449;50.016;19.954;2024-02-04T05:30:45;98521.74;;;8.57
75811;BMP280;64449;50.016;19.954;2024-02-04T05:33:13;98521.68;;;8.57
75811;BMP280;64449;50.016;19.954;2024-02-04T05:35:40;98526.30;;;8.58
75811;BMP280;64449;50.016;19.954;2024-02-04T05:38:08;98526.14;;;8.58
75811;BMP280;64449;50.016;19.954;2024-02-04T05:40:33;98524.08;;;8.58
75811;BMP280;64449;50.016;19.954;2024-02-04T05:42:59;98517.14;;;8.57
75811;BMP280;64449;50.016;19.954;2024-02-04T05:45:24;98511.59;;;8.56
75811;BMP280;64449;50.016;19.954;2024-02-04T05:47:49;98504.60;;;8.55
75811;BMP280;64449;50.016;19.954;2024-02-04T05:50:15;98506.55;;;8.54
75811;BMP280;64449;50.016;19.954;2024-02-04T05:52:40;98510.09;;;8.52
75811;BMP280;64449;50.016;19.954;2024-02-04T05:55:06;98514.34;;;8.52
75811;BMP280;64449;50.016;19.954;2024-02-04T05:57:31;98528.84;;;8.51
75811;BMP280;64449;50.016;19.954;2024-02-04T05:59:57;98532.52;;;8.50
75811;BMP280;64449;50.016;19.954;2024-02-04T06:02:24;98534.26;;;8.51
75811;BMP280;64449;50.016;19.954;2024-02-04T06:04:50;98540.98;;;8.51
75811;BMP280;64449;50.016;19.954;2024-02-04T06:07:15;98538.81;;;8.50
75811;BMP280;64449;50.016;19.954;2024-02-04T06:09:40;98536.58;;;8.50
75811;BMP280;64449;50.016;19.954;2024-02-04T06:12:06;98530.30;;;8.50
75811;BMP280;64449;50.016;19.954;2024-02-04T06:14:33;98535.95;;;8.49
75811;BMP280;64449;50.016;19.954;2024-02-04T06:17:00;98548.64;;;8.49
75811;BMP280;64449;50.016;19.954;2024-02-04T06:19:25;98552.25;;;8.48
75811;BMP280;64449;50.016;19.954;2024-02-04T06:21:50;98553.05;;;8.47
75811;BMP280;64449;50.016;19.954;2024-02-04T06:24:16;98554.05;;;8.45
75811;BMP280;64449;50.016;19.954;2024-02-04T06:26:41;98550.98;;;8.45
75811;BMP280;64449;50.016;19.954;2024-02-04T06:29:07;98545.90;;;8.43
75811;BMP280;64449;50.016;19.954;2024-02-04T06:31:32;98533.12;;;8.43
75811;BMP280;64449;50.016;19.954;2024-02-04T06:33:57;98519.67;;;8.42
75811;BMP280;64449;50.016;19.954;2024-02-04T06:36:23;98510.77;;;8.42
75811;BMP280;64449;50.016;19.954;2024-02-04T06:38:48;98509.73;;;8.41
75811;BMP280;64449;50.016;19.954;2024-02-04T06:41:14;98509.90;;;8.40
75811;BMP280;64449;50.016;19.954;2024-02-04T06:43:39;98515.33;;;8.41
75811;BMP280;64449;50.016;19.954;2024-02-04T06:46:04;98523.32;;;8.43
75811;BMP280;64449;50.016;19.954;2024-02-04T06:48:30;98527.52;;;8.45
75811;BMP280;64449;50.016;19.954;2024-02-04T06:50:56;98533.05;;;8.47
75811;BMP280;64449;50.016;19.954;2024-02-04T06:53:21;98528.67;;;8.49
75811;BMP280;64449;50.016;19.954;2024-02-04T06:55:46;98529.56;;;8.49
75811;BMP280;64449;50.016;19.954;2024-02-04T06:58:12;98531.65;;;8.50
75811;BMP280;64449;50.016;19.954;2024-02-04T07:00:37;98530.77;;;8.53
75811;BMP280;64449;50.016;19.954;2024-02-04T07:03:03;98534.16;;;8.54
75811;BMP280;64449;50.016;19.954;2024-02-04T07:05:28;98535.17;;;8.56
75811;BMP280;64449;50.016;19.954;2024-02-04T07:07:53;98528.75;;;8.58
75811;BMP280;64449;50.016;19.954;2024-02-04T07:10:19;98530.33;;;8.60
75811;BMP280;64449;50.016;19.954;2024-02-04T07:12:44;98533.71;;;8.62
75811;BMP280;64449;50.016;19.954;2024-02-04T07:15:10;98546.38;;;8.64
75811;BMP280;64449;50.016;19.954;2024-02-04T07:17:35;98550.92;;;8.67
75811;BMP280;64449;50.016;19.954;2024-02-04T07:20:01;98533.19;;;8.70
75811;BMP280;64449;50.016;19.954;2024-02-04T07:22:28;98527.35;;;8.72
75811;BMP280;64449;50.016;19.954;2024-02-04T07:24:53;98511.75;;;8.74
75811;BMP280;64449;50.016;19.954;2024-02-04T07:27:18;98520.45;;;8.76
75811;BMP280;64449;50.016;19.954;2024-02-04T07:29:44;98526.93;;;8.78
75811;BMP280;64449;50.016;19.954;2024-02-04T07:32:09;98524.15;;;8.81
75811;BMP280;64449;50.016;19.954;2024-02-04T07:34:35;98536.02;;;8.83
75811;BMP280;64449;50.016;19.954;2024-02-04T07:37:00;98538.80;;;8.85
75811;BMP280;64449;50.016;19.954;2024-02-04T07:39:26;98546.56;;;8.84
75811;BMP280;64449;50.016;19.954;2024-02-04T07:41:51;98540.46;;;8.85
75811;BMP280;64449;50.016;19.954;2024-02-04T07:44:19;98544.84;;;8.88
75811;BMP280;64449;50.016;19.954;2024-02-04T07:46:44;98535.35;;;8.91
75811;BMP280;64449;50.016;19.954;2024-02-04T07:49:10;98540.61;;;8.95
75811;BMP280;64449;50.016;19.954;2024-02-04T07:51:35;98538.86;;;8.97
75811;BMP280;64449;50.016;19.954;2024-02-04T07:54:01;98540.67;;;9.01
75811;BMP280;64449;50.016;19.954;2024-02-04T07:56:26;98542.66;;;9.04
75811;BMP280;64449;50.016;19.954;2024-02-04T07:58:52;98546.51;;;9.07
75811;BMP280;64449;50.016;19.954;2024-02-04T08:01:18;98555.37;;;9.10
75811;BMP280;64449;50.016;19.954;2024-02-04T08:03:44;98548.73;;;9.12
75811;BMP280;64449;50.016;19.954;2024-02-04T08:06:12;98546.26;;;9.14
75811;BMP280;64449;50.016;19.954;2024-02-04T08:08:37;98552.17;;;9.21
75811;BMP280;64449;50.016;19.954;2024-02-04T08:11:02;98549.73;;;9.27
75811;BMP280;64449;50.016;19.954;2024-02-04T08:13:28;98556.83;;;9.31
75811;BMP280;64449;50.016;19.954;2024-02-04T08:15:53;98559.23;;;9.34
75811;BMP280;64449;50.016;19.954;2024-02-04T08:18:19;98545.31;;;9.37
75811;BMP280;64449;50.016;19.954;2024-02-04T08:20:44;98544.95;;;9.45
75811;BMP280;64449;50.016;19.954;2024-02-04T08:23:10;98555.27;;;9.53
75811;BMP280;64449;50.016;19.954;2024-02-04T08:25:35;98565.04;;;9.59
75811;BMP280;64449;50.016;19.954;2024-02-04T08:28:01;98571.16;;;9.57
75811;BMP280;64449;50.016;19.954;2024-02-04T08:30:27;98568.88;;;9.51
75811;BMP280;64449;50.016;19.954;2024-02-04T08:32:52;98562.18;;;9.43
75811;BMP280;64449;50.016;19.954;2024-02-04T08:35:17;98568.64;;;9.40
75811;BMP280;64449;50.016;19.954;2024-02-04T08:37:43;98576.56;;;9.39
75811;BMP280;64449;50.016;19.954;2024-02-04T08:40:09;98578.75;;;9.39
75811;BMP280;64449;50.016;19.954;2024-02-04T08:42:35;98580.40;;;9.39
75811;BMP280;64449;50.016;19.954;2024-02-04T08:45:01;98577.97;;;9.38
75811;BMP280;64449;50.016;19.954;2024-02-04T08:47:26;98582.25;;;9.38
75811;BMP280;64449;50.016;19.954;2024-02-04T08:49:51;98583.31;;;9.40
75811;BMP280;64449;50.016;19.954;2024-02-04T08:52:18;98572.85;;;9.41
75811;BMP280;64449;50.016;19.954;2024-02-04T08:54:43;98562.44;;;9.46
75811;BMP280;64449;50.016;19.954;2024-02-04T08:57:08;98561.50;;;9.50
75811;BMP280;64449;50.016;19.954;2024-02-04T08:59:34;98569.64;;;9.49
75811;BMP280;64449;50.016;19.954;2024-02-04T09:02:00;98575.63;;;9.46
75811;BMP280;64449;50.016;19.954;2024-02-04T09:04:25;98576.67;;;9.45
75811;BMP280;64449;50.016;19.954;2024-02-04T09:06:50;98574.97;;;9.44
75811;BMP280;64449;50.016;19.954;2024-02-04T09:09:16;98580.45;;;9.43
75811;BMP280;64449;50.016;19.954;2024-02-04T09:11:41;98577.27;;;9.40
75811;BMP280;64449;50.016;19.954;2024-02-04T09:14:06;98578.05;;;9.37
75811;BMP280;64449;50.016;19.954;2024-02-04T09:16:32;98580.73;;;9.36
75811;BMP280;64449;50.016;19.954;2024-02-04T09:18:58;98578.10;;;9.36
75811;BMP280;64449;50.016;19.954;2024-02-04T09:21:23;98577.77;;;9.37
75811;BMP280;64449;50.016;19.954;2024-02-04T09:23:49;98591.88;;;9.41
75811;BMP280;64449;50.016;19.954;2024-02-04T09:26:14;98595.35;;;9.44
75811;BMP280;64449;50.016;19.954;2024-02-04T09:28:40;98596.73;;;9.49
75811;BMP280;64449;50.016;19.954;2024-02-04T09:31:08;98602.48;;;9.53
75811;BMP280;64449;50.016;19.954;2024-02-04T09:33:34;98597.58;;;9.55
75811;BMP280;64449;50.016;19.954;2024-02-04T09:36:00;98598.88;;;9.58
75811;BMP280;64449;50.016;19.954;2024-02-04T09:38:26;98596.21;;;9.64
75811;BMP280;64449;50.016;19.954;2024-02-04T09:40:51;98604.80;;;9.71
75811;BMP280;64449;50.016;19.954;2024-02-04T09:43:17;98605.94;;;9.79
75811;BMP280;64449;50.016;19.954;2024-02-04T09:45:44;98610.26;;;9.84
75811;BMP280;64449;50.016;19.954;2024-02-04T09:48:10;98611.31;;;9.91
75811;BMP280;64449;50.016;19.954;2024-02-04T09:50:37;98604.96;;;9.95
75811;BMP280;64449;50.016;19.954;2024-02-04T09:53:03;98603.11;;;10.05
75811;BMP280;64449;50.016;19.954;2024-02-04T09:55:32;98600.79;;;10.21
75811;BMP280;64449;50.016;19.954;2024-02-04T09:57:58;98600.27;;;10.37
75811;BMP280;64449;50.016;19.954;2024-02-04T10:00:27;98601.94;;;10.48
75811;BMP280;64449;50.016;19.954;2024-02-04T10:02:53;98596.88;;;10.49
75811;BMP280;64449;50.016;19.954;2024-02-04T10:05:19;98583.27;;;10.38
75811;BMP280;64449;50.016;19.954;2024-02-04T10:07:45;98575.09;;;10.28
75811;BMP280;64449;50.016;19.954;2024-02-04T10:10:11;98577.20;;;10.20
75811;BMP280;64449;50.016;19.954;2024-02-04T10:12:37;98570.19;;;10.12
75811;BMP280;64449;50.016;19.954;2024-02-04T10:15:04;98567.73;;;10.21
75811;BMP280;64449;50.016;19.954;2024-02-04T10:17:31;98564.92;;;10.26
75811;BMP280;64449;50.016;19.954;2024-02-04T10:19:57;98569.11;;;10.28
75811;BMP280;64449;50.016;19.954;2024-02-04T10:22:26;98567.74;;;10.34
75811;BMP280;64449;50.016;19.954;2024-02-04T10:24:51;98568.83;;;10.63
75811;BMP280;64449;50.016;19.954;2024-02-04T10:27:17;98560.95;;;10.77
75811;BMP280;64449;50.016;19.954;2024-02-04T10:29:43;98558.91;;;10.83
75811;BMP280;64449;50.016;19.954;2024-02-04T10:32:09;98557.61;;;10.90
75811;BMP280;64449;50.016;19.954;2024-02-04T10:34:37;98550.34;;;10.86
75811;BMP280;64449;50.016;19.954;2024-02-04T10:37:03;98537.39;;;10.89
75811;BMP280;64449;50.016;19.954;2024-02-04T10:39:29;98540.88;;;11.18
75811;BMP280;64449;50.016;19.954;2024-02-04T10:41:56;98529.34;;;11.46
75811;BMP280;64449;50.016;19.954;2024-02-04T10:44:28;98524.02;;;11.42
75811;BMP280;64449;50.016;19.954;2024-02-04T10:46:55;98511.04;;;11.45
75811;BMP280;64449;50.016;19.954;2024-02-04T10:49:22;98513.23;;;11.76
75811;BMP280;64449;50.016;19.954;2024-02-04T10:51:50;98506.39;;;11.83
75811;BMP280;64449;50.016;19.954;2024-02-04T10:54:16;98508.48;;;11.91
75811;BMP280;64449;50.016;19.954;2024-02-04T10:56:45;98500.77;;;11.87
75811;BMP280;64449;50.016;19.954;2024-02-04T10:59:11;98493.38;;;11.82
75811;BMP280;64449;50.016;19.954;2024-02-04T11:01:39;98493.28;;;11.94
75811;BMP280;64449;50.016;19.954;2024-02-04T11:04:08;98492.30;;;11.94
75811;BMP280;64449;50.016;19.954;2024-02-04T11:06:35;98489.87;;;12.02
75811;BMP280;64449;50.016;19.954;2024-02-04T11:09:02;98482.11;;;12.15
75811;BMP280;64449;50.016;19.954;2024-02-04T11:11:29;98479.78;;;12.46
75811;BMP280;64449;50.016;19.954;2024-02-04T11:13:56;98467.97;;;12.82
75811;BMP280;64449;50.016;19.954;2024-02-04T11:27:30;98447.05;;;13.86
75811;BMP280;64449;50.016;19.954;2024-02-04T11:29:56;98452.30;;;14.08
75811;BMP280;64449;50.016;19.954;2024-02-04T11:32:21;98436.34;;;14.39
75811;BMP280;64449;50.016;19.954;2024-02-04T11:34:49;98438.23;;;14.69
75811;BMP280;64449;50.016;19.954;2024-02-04T11:37:18;98428.60;;;14.81
75811;BMP280;64449;50.016;19.954;2024-02-04T11:39:48;98425.11;;;14.68
75811;BMP280;64449;50.016;19.954;2024-02-04T11:42:15;98429.59;;;14.68
75811;BMP280;64449;50.016;19.954;2024-02-04T11:44:41;98425.51;;;14.62
75811;BMP280;64449;50.016;19.954;2024-02-04T11:47:06;98424.31;;;14.76
75811;BMP280;64449;50.016;19.954;2024-02-04T11:49:32;98419.63;;;14.85
75811;BMP280;64449;50.016;19.954;2024-02-04T11:51:57;98418.73;;;14.83
75811;BMP280;64449;50.016;19.954;2024-02-04T11:54:23;98413.41;;;14.75
75811;BMP280;64449;50.016;19.954;2024-02-04T11:56:49;98413.73;;;14.53
75811;BMP280;64449;50.016;19.954;2024-02-04T11:59:24;98410.77;;;14.34
75811;BMP280;64449;50.016;19.954;2024-02-04T12:01:54;98401.33;;;14.21
75811;BMP280;64449;50.016;19.954;2024-02-04T12:04:21;98386.04;;;14.12
75811;BMP280;64449;50.016;19.954;2024-02-04T12:06:47;98377.95;;;14.06
75811;BMP280;64449;50.016;19.954;2024-02-04T12:09:16;98359.55;;;13.90
75811;BMP280;64449;50.016;19.954;2024-02-04T12:11:43;98349.58;;;13.67
75811;BMP280;64449;50.016;19.954;2024-02-04T12:14:10;98351.30;;;13.42
75811;BMP280;64449;50.016;19.954;2024-02-04T12:16:35;98349.13;;;13.12
75811;BMP280;64449;50.016;19.954;2024-02-04T12:19:04;98337.17;;;12.86
75811;BMP280;64449;50.016;19.954;2024-02-04T12:21:30;98331.35;;;12.60
75811;BMP280;64449;50.016;19.954;2024-02-04T12:23:56;98319.45;;;12.38
75811;BMP280;64449;50.016;19.954;2024-02-04T12:26:22;98323.95;;;12.20
75811;BMP280;64449;50.016;19.954;2024-02-04T12:28:48;98323.69;;;12.01
75811;BMP280;64449;50.016;19.954;2024-02-04T12:31:18;98318.23;;;11.87
75811;BMP280;64449;50.016;19.954;2024-02-04T12:33:57;98316.86;;;11.69
75811;BMP280;64449;50.016;19.954;2024-02-04T12:36:32;98307.59;;;11.54
75811;BMP280;64449;50.016;19.954;2024-02-04T12:39:03;98309.17;;;11.38
75811;BMP280;64449;50.016;19.954;2024-02-04T12:41:29;98301.63;;;11.26
75811;BMP280;64449;50.016;19.954;2024-02-04T12:43:57;98300.55;;;11.15
75811;BMP280;64449;50.016;19.954;2024-02-04T12:46:24;98294.80;;;11.03
75811;BMP280;64449;50.016;19.954;2024-02-04T12:48:57;98289.48;;;10.95
75811;BMP280;64449;50.016;19.954;2024-02-04T12:51:30;98295.08;;;10.90
75811;BMP280;64449;50.016;19.954;2024-02-04T12:54:25;98296.65;;;10.81
75811;BMP280;64449;50.016;19.954;2024-02-04T12:56:52;98287.84;;;10.73
75811;BMP280;64449;50.016;19.954;2024-02-04T12:59:25;98286.45;;;10.69
75811;BMP280;64449;50.016;19.954;2024-02-04T13:01:54;98295.60;;;10.65
75811;BMP280;64449;50.016;19.954;2024-02-04T13:04:21;98292.16;;;10.60
75811;BMP280;64449;50.016;19.954;2024-02-04T13:06:47;98293.45;;;10.54
75811;BMP280;64449;50.016;19.954;2024-02-04T13:09:15;98299.50;;;10.50
75811;BMP280;64449;50.016;19.954;2024-02-04T13:11:41;98303.41;;;10.49
75811;BMP280;64449;50.016;19.954;2024-02-04T13:14:07;98298.98;;;10.47
75811;BMP280;64449;50.016;19.954;2024-02-04T13:16:33;98300.48;;;10.46
75811;BMP280;64449;50.016;19.954;2024-02-04T13:19:01;98289.67;;;10.46
75811;BMP280;64449;50.016;19.954;2024-02-04T13:21:26;98288.11;;;10.45
75811;BMP280;64449;50.016;19.954;2024-02-04T13:23:52;98284.23;;;10.46
75811;BMP280;64449;50.016;19.954;2024-02-04T13:26:17;98279.27;;;10.45
75811;BMP280;64449;50.016;19.954;2024-02-04T13:28:43;98270.61;;;10.45
75811;BMP280;64449;50.016;19.954;2024-02-04T13:31:09;98260.98;;;10.45
75811;BMP280;64449;50.016;19.954;2024-02-04T13:33:34;98255.52;;;10.45
75811;BMP280;64449;50.016;19.954;2024-02-04T13:35:59;98248.34;;;10.44
75811;BMP280;64449;50.016;19.954;2024-02-04T13:38:25;98252.64;;;10.44
75811;BMP280;64449;50.016;19.954;2024-02-04T13:40:51;98264.14;;;10.43
75811;BMP280;64449;50.016;19.954;2024-02-04T13:43:16;98262.14;;;10.42
75811;BMP280;64449;50.016;19.954;2024-02-04T13:45:41;98253.80;;;10.40
75811;BMP280;64449;50.016;19.954;2024-02-04T13:48:07;98248.80;;;10.40
75811;BMP280;64449;50.016;19.954;2024-02-04T13:50:32;98246.11;;;10.39
75811;BMP280;64449;50.016;19.954;2024-02-04T13:52:58;98247.83;;;10.38
75811;BMP280;64449;50.016;19.954;2024-02-04T13:55:24;98254.10;;;10.37
75811;BMP280;64449;50.016;19.954;2024-02-04T13:57:50;98258.69;;;10.37
75811;BMP280;64449;50.016;19.954;2024-02-04T14:00:15;98272.86;;;10.34
75811;BMP280;64449;50.016;19.954;2024-02-04T14:02:43;98268.15;;;10.31
75811;BMP280;64449;50.016;19.954;2024-02-04T14:05:08;98276.20;;;10.28
75811;BMP280;64449;50.016;19.954;2024-02-04T14:07:33;98275.87;;;10.25
75811;BMP280;64449;50.016;19.954;2024-02-04T14:09:59;98280.67;;;10.21
75811;BMP280;64449;50.016;19.954;2024-02-04T14:12:24;98289.02;;;10.17
75811;BMP280;64449;50.016;19.954;2024-02-04T14:14:50;98287.98;;;10.12